Decoded Metar for LFLX (CHATEAUROUX in FRANCE) (IATA:CHR) | Meteo·Mobile Aviation Weather
aviador You're here:

LFLX Decoded Metar

CHATEAUROUX in FRANCE
Report Time2020-02-23 09:30:00
UTC Time2020-02-23 09:54:43
Flight Rules mvfr MVFR
Wind220° at 20 kt
W.Decomp.*RWY 21: 19.7 kt HW 3.5 kt RCW
Visibility9999 m
Phenomena:N/A
Clouds:Overcast 012 Hf
Expected CloudBase > 1,200 ft AGL from Temp-Dew spread
Ceiling1,200 ft
Temp09°C (ISA -5)
Dew Point06°C (82% RH)
AAT0.9°C
QNH1030 hPa
Density Alt-525 ft
Elevation515 ft
Report Wrong Elevation
Raw Report
METAR LFLX 230930Z AUTO 22020KT 9999 OVC012 09/06 Q1030 TEMPO 24015G27KT=

Extra information for LFLX:More info

Metar Taf Metar & Taf Last 4 Metars F.Rules Stats Wind Profile Meteogram Temp Stats Airport Information Weather charts Add Link Nearby VenuesMetar ALERT Operation Metar Decoded Social comments